Main page
METAR-TAF:

METAR-TAF

Airports :

Termez Airport

Termez, Uzbekistan

latitude: 37-14N, longitude: 067-16E, elevation: 302 m

Current weather observation

The report was made 34 minutes ago, at 09:30 UTC
Wind 4 kt from the West/Southwest
Temperature 34°C
Humidity 10%
Pressure 1010 hPa
Visibility 10 km or more
no clouds below 1500 m and no cumulonimbus

METAR: UTST 240930Z 25004KT CAVOK 34/M02 Q1010 R25/CLRD70 NOSIG

Time: 15:04 (10:04 UTC)

Forecast

The report was made 5 hours and 4 minutes ago, at 05:00 UTC
Forecast valid from 24 at 06 UTC to 25 at 06 UTC
Wind 6 kt from variable directions
Visibility: 6000 m
Temporary
from 24 at 06 UTC to 24 at 16 UTC
Wind 8 kt from the West/Southwest with gusts up to 18 kt

TAF: UTST 240500Z 2406/2506 VRB06KT 6000 NSC TX35/2411Z TEMPO 2406/2416 24008G18KT

Weather observations and forecasts of more than 4000 airports (METAR and TAF reports).

The available stations are represented by yellow and red dots on the map.

Hover mouse over dot to see the name of the station.

Then click to see weather observations and forecasts.

To change the map : click on the green buttons with a black cross to zoom in, on the green button with a dash to zoom out, or on the green arrows for adjacent maps.


METAR-TAF: